sensor_id;sensor_type;location;lat;lon;timestamp;P1;durP1;ratioP1;P2;durP2;ratioP2
27543;SDS011;17996;51.056;3.656;2023-05-16T00:00:16;27.38;;;4.45;;
27543;SDS011;17996;51.056;3.656;2023-05-16T00:02:43;29.05;;;4.57;;
27543;SDS011;17996;51.056;3.656;2023-05-16T00:05:08;26.35;;;5.47;;
27543;SDS011;17996;51.056;3.656;2023-05-16T00:07:43;30.85;;;4.15;;
27543;SDS011;17996;51.056;3.656;2023-05-16T00:10:11;33.88;;;4.63;;
27543;SDS011;17996;51.056;3.656;2023-05-16T00:12:37;27.10;;;4.55;;
27543;SDS011;17996;51.056;3.656;2023-05-16T00:15:07;36.35;;;4.68;;
27543;SDS011;17996;51.056;3.656;2023-05-16T00:17:36;20.55;;;5.93;;
27543;SDS011;17996;51.056;3.656;2023-05-16T00:20:02;18.73;;;3.80;;
27543;SDS011;17996;51.056;3.656;2023-05-16T00:22:35;42.08;;;5.28;;
27543;SDS011;17996;51.056;3.656;2023-05-16T00:25:01;26.70;;;4.57;;
27543;SDS011;17996;51.056;3.656;2023-05-16T00:27:28;23.45;;;4.40;;
27543;SDS011;17996;51.056;3.656;2023-05-16T00:29:55;25.90;;;4.75;;
27543;SDS011;17996;51.056;3.656;2023-05-16T00:32:21;42.28;;;4.47;;
27543;SDS011;17996;51.056;3.656;2023-05-16T00:34:47;28.20;;;4.80;;
27543;SDS011;17996;51.056;3.656;2023-05-16T00:37:13;33.17;;;4.45;;
27543;SDS011;17996;51.056;3.656;2023-05-16T00:39:39;28.02;;;4.07;;
27543;SDS011;17996;51.056;3.656;2023-05-16T00:42:05;25.70;;;5.10;;
27543;SDS011;17996;51.056;3.656;2023-05-16T00:44:33;24.35;;;4.28;;
27543;SDS011;17996;51.056;3.656;2023-05-16T00:46:58;25.77;;;4.97;;
27543;SDS011;17996;51.056;3.656;2023-05-16T00:49:25;36.53;;;5.43;;
27543;SDS011;17996;51.056;3.656;2023-05-16T00:51:51;30.85;;;4.70;;
27543;SDS011;17996;51.056;3.656;2023-05-16T00:54:18;29.80;;;5.03;;
27543;SDS011;17996;51.056;3.656;2023-05-16T00:56:48;32.58;;;5.03;;
27543;SDS011;17996;51.056;3.656;2023-05-16T00:59:15;31.98;;;4.35;;
27543;SDS011;17996;51.056;3.656;2023-05-16T01:01:41;27.58;;;4.38;;
27543;SDS011;17996;51.056;3.656;2023-05-16T01:04:10;28.45;;;5.78;;
27543;SDS011;17996;51.056;3.656;2023-05-16T01:06:36;29.00;;;4.60;;
27543;SDS011;17996;51.056;3.656;2023-05-16T01:09:04;23.67;;;4.07;;
27543;SDS011;17996;51.056;3.656;2023-05-16T01:16:45;25.55;;;5.03;;
27543;SDS011;17996;51.056;3.656;2023-05-16T01:27:23;20.35;;;4.38;;
27543;SDS011;17996;51.056;3.656;2023-05-16T01:29:54;22.40;;;4.13;;
27543;SDS011;17996;51.056;3.656;2023-05-16T01:32:20;30.40;;;4.30;;
27543;SDS011;17996;51.056;3.656;2023-05-16T01:34:50;21.95;;;4.13;;
27543;SDS011;17996;51.056;3.656;2023-05-16T01:37:28;25.55;;;4.35;;
27543;SDS011;17996;51.056;3.656;2023-05-16T01:40:02;22.23;;;3.22;;
27543;SDS011;17996;51.056;3.656;2023-05-16T01:42:31;19.52;;;4.07;;
27543;SDS011;17996;51.056;3.656;2023-05-16T01:45:00;22.45;;;4.80;;
27543;SDS011;17996;51.056;3.656;2023-05-16T01:47:27;22.40;;;3.75;;
27543;SDS011;17996;51.056;3.656;2023-05-16T01:50:01;22.83;;;3.78;;
27543;SDS011;17996;51.056;3.656;2023-05-16T01:52:48;25.30;;;4.43;;
27543;SDS011;17996;51.056;3.656;2023-05-16T01:58:13;25.55;;;4.15;;
27543;SDS011;17996;51.056;3.656;2023-05-16T02:00:40;25.23;;;4.82;;
27543;SDS011;17996;51.056;3.656;2023-05-16T02:03:06;26.13;;;3.85;;
27543;SDS011;17996;51.056;3.656;2023-05-16T02:05:32;22.77;;;5.05;;
27543;SDS011;17996;51.056;3.656;2023-05-16T02:07:59;19.75;;;3.67;;
27543;SDS011;17996;51.056;3.656;2023-05-16T02:10:25;22.58;;;4.10;;
27543;SDS011;17996;51.056;3.656;2023-05-16T02:12:51;26.13;;;4.28;;
27543;SDS011;17996;51.056;3.656;2023-05-16T02:15:17;20.15;;;3.83;;
27543;SDS011;17996;51.056;3.656;2023-05-16T02:17:43;18.05;;;4.25;;
27543;SDS011;17996;51.056;3.656;2023-05-16T02:20:09;28.13;;;3.90;;
27543;SDS011;17996;51.056;3.656;2023-05-16T02:22:36;24.13;;;3.28;;
27543;SDS011;17996;51.056;3.656;2023-05-16T02:25:03;24.60;;;3.28;;
27543;SDS011;17996;51.056;3.656;2023-05-16T02:27:30;21.42;;;3.83;;
27543;SDS011;17996;51.056;3.656;2023-05-16T02:29:56;31.58;;;4.18;;
27543;SDS011;17996;51.056;3.656;2023-05-16T02:32:22;24.10;;;4.28;;
27543;SDS011;17996;51.056;3.656;2023-05-16T02:34:48;17.40;;;3.38;;
27543;SDS011;17996;51.056;3.656;2023-05-16T02:37:14;21.88;;;4.68;;
27543;SDS011;17996;51.056;3.656;2023-05-16T02:39:40;23.60;;;3.75;;
27543;SDS011;17996;51.056;3.656;2023-05-16T02:42:06;22.02;;;4.25;;
27543;SDS011;17996;51.056;3.656;2023-05-16T02:44:32;26.60;;;4.13;;
27543;SDS011;17996;51.056;3.656;2023-05-16T02:46:57;23.83;;;3.95;;
27543;SDS011;17996;51.056;3.656;2023-05-16T02:49:23;23.23;;;5.53;;
27543;SDS011;17996;51.056;3.656;2023-05-16T02:51:49;20.25;;;3.95;;
27543;SDS011;17996;51.056;3.656;2023-05-16T02:54:15;22.17;;;3.80;;
27543;SDS011;17996;51.056;3.656;2023-05-16T02:56:41;21.35;;;3.63;;
27543;SDS011;17996;51.056;3.656;2023-05-16T02:59:07;18.75;;;3.42;;
27543;SDS011;17996;51.056;3.656;2023-05-16T03:01:33;15.60;;;3.05;;
27543;SDS011;17996;51.056;3.656;2023-05-16T03:03:59;24.70;;;4.90;;
27543;SDS011;17996;51.056;3.656;2023-05-16T03:06:25;16.02;;;3.45;;
27543;SDS011;17996;51.056;3.656;2023-05-16T03:08:51;20.13;;;3.50;;
27543;SDS011;17996;51.056;3.656;2023-05-16T03:11:17;14.57;;;3.20;;
27543;SDS011;17996;51.056;3.656;2023-05-16T03:13:46;18.98;;;3.80;;
27543;SDS011;17996;51.056;3.656;2023-05-16T03:16:12;27.85;;;4.50;;
27543;SDS011;17996;51.056;3.656;2023-05-16T03:18:38;14.82;;;3.53;;
27543;SDS011;17996;51.056;3.656;2023-05-16T03:21:04;19.00;;;4.07;;
27543;SDS011;17996;51.056;3.656;2023-05-16T03:23:30;21.67;;;4.43;;
27543;SDS011;17996;51.056;3.656;2023-05-16T03:25:55;18.65;;;3.22;;
27543;SDS011;17996;51.056;3.656;2023-05-16T03:28:21;20.67;;;3.92;;
27543;SDS011;17996;51.056;3.656;2023-05-16T03:30:47;17.17;;;3.97;;
27543;SDS011;17996;51.056;3.656;2023-05-16T03:33:12;16.95;;;4.05;;
27543;SDS011;17996;51.056;3.656;2023-05-16T03:35:38;25.92;;;3.90;;
27543;SDS011;17996;51.056;3.656;2023-05-16T03:38:05;17.98;;;3.45;;
27543;SDS011;17996;51.056;3.656;2023-05-16T03:40:31;20.20;;;3.58;;
27543;SDS011;17996;51.056;3.656;2023-05-16T03:42:56;25.58;;;3.78;;
27543;SDS011;17996;51.056;3.656;2023-05-16T03:45:22;17.73;;;3.53;;
27543;SDS011;17996;51.056;3.656;2023-05-16T03:47:48;20.80;;;3.33;;
27543;SDS011;17996;51.056;3.656;2023-05-16T03:50:14;11.57;;;3.40;;
27543;SDS011;17996;51.056;3.656;2023-05-16T03:52:40;24.20;;;3.65;;
27543;SDS011;17996;51.056;3.656;2023-05-16T03:55:06;22.27;;;3.92;;
27543;SDS011;17996;51.056;3.656;2023-05-16T03:57:33;18.50;;;3.15;;
27543;SDS011;17996;51.056;3.656;2023-05-16T04:00:02;24.70;;;4.47;;
27543;SDS011;17996;51.056;3.656;2023-05-16T04:02:28;21.33;;;3.55;;
27543;SDS011;17996;51.056;3.656;2023-05-16T04:04:53;22.10;;;3.42;;
27543;SDS011;17996;51.056;3.656;2023-05-16T04:07:19;21.80;;;4.88;;
27543;SDS011;17996;51.056;3.656;2023-05-16T04:09:45;18.45;;;3.83;;
27543;SDS011;17996;51.056;3.656;2023-05-16T04:12:10;20.23;;;4.15;;
27543;SDS011;17996;51.056;3.656;2023-05-16T04:14:37;13.80;;;3.58;;
27543;SDS011;17996;51.056;3.656;2023-05-16T04:17:03;19.60;;;3.22;;
27543;SDS011;17996;51.056;3.656;2023-05-16T04:19:29;15.27;;;3.33;;
27543;SDS011;17996;51.056;3.656;2023-05-16T04:21:55;16.00;;;3.30;;
27543;SDS011;17996;51.056;3.656;2023-05-16T04:24:21;17.02;;;3.90;;
27543;SDS011;17996;51.056;3.656;2023-05-16T04:26:50;11.52;;;3.25;;
27543;SDS011;17996;51.056;3.656;2023-05-16T04:29:16;10.75;;;3.10;;
27543;SDS011;17996;51.056;3.656;2023-05-16T04:31:43;11.65;;;3.67;;
27543;SDS011;17996;51.056;3.656;2023-05-16T04:34:08;18.00;;;3.50;;
27543;SDS011;17996;51.056;3.656;2023-05-16T04:36:34;10.15;;;3.13;;
27543;SDS011;17996;51.056;3.656;2023-05-16T04:39:00;8.57;;;2.88;;
27543;SDS011;17996;51.056;3.656;2023-05-16T04:41:26;10.80;;;2.90;;
27543;SDS011;17996;51.056;3.656;2023-05-16T04:43:52;10.43;;;3.38;;
27543;SDS011;17996;51.056;3.656;2023-05-16T04:46:18;20.60;;;3.97;;
27543;SDS011;17996;51.056;3.656;2023-05-16T04:48:44;16.35;;;4.15;;
27543;SDS011;17996;51.056;3.656;2023-05-16T04:51:10;12.32;;;4.28;;
27543;SDS011;17996;51.056;3.656;2023-05-16T04:53:36;20.58;;;4.53;;
27543;SDS011;17996;51.056;3.656;2023-05-16T04:56:02;15.75;;;4.15;;
27543;SDS011;17996;51.056;3.656;2023-05-16T04:58:29;17.35;;;4.13;;
27543;SDS011;17996;51.056;3.656;2023-05-16T05:00:56;23.60;;;4.22;;
27543;SDS011;17996;51.056;3.656;2023-05-16T05:03:22;19.88;;;4.50;;
27543;SDS011;17996;51.056;3.656;2023-05-16T05:05:47;16.45;;;4.03;;
27543;SDS011;17996;51.056;3.656;2023-05-16T05:08:13;16.33;;;4.10;;
27543;SDS011;17996;51.056;3.656;2023-05-16T05:10:39;20.42;;;4.35;;
27543;SDS011;17996;51.056;3.656;2023-05-16T05:13:05;24.00;;;4.80;;
27543;SDS011;17996;51.056;3.656;2023-05-16T05:15:31;17.75;;;3.30;;
27543;SDS011;17996;51.056;3.656;2023-05-16T05:17:56;28.45;;;4.05;;
27543;SDS011;17996;51.056;3.656;2023-05-16T05:20:22;12.48;;;3.60;;
27543;SDS011;17996;51.056;3.656;2023-05-16T05:22:48;15.02;;;3.60;;
27543;SDS011;17996;51.056;3.656;2023-05-16T05:25:14;11.45;;;3.72;;
27543;SDS011;17996;51.056;3.656;2023-05-16T05:27:40;18.02;;;4.25;;
27543;SDS011;17996;51.056;3.656;2023-05-16T05:30:05;15.38;;;3.80;;
27543;SDS011;17996;51.056;3.656;2023-05-16T05:32:31;27.65;;;4.35;;
27543;SDS011;17996;51.056;3.656;2023-05-16T05:34:57;25.13;;;4.38;;
27543;SDS011;17996;51.056;3.656;2023-05-16T05:37:23;16.63;;;5.10;;
27543;SDS011;17996;51.056;3.656;2023-05-16T05:39:50;18.65;;;3.63;;
27543;SDS011;17996;51.056;3.656;2023-05-16T05:42:15;14.93;;;3.63;;
27543;SDS011;17996;51.056;3.656;2023-05-16T05:44:41;16.40;;;3.78;;
27543;SDS011;17996;51.056;3.656;2023-05-16T05:47:07;22.90;;;3.75;;
27543;SDS011;17996;51.056;3.656;2023-05-16T05:49:33;18.02;;;3.42;;
27543;SDS011;17996;51.056;3.656;2023-05-16T05:51:59;18.48;;;3.63;;
27543;SDS011;17996;51.056;3.656;2023-05-16T05:54:25;17.30;;;3.80;;
27543;SDS011;17996;51.056;3.656;2023-05-16T05:56:51;20.25;;;3.80;;
27543;SDS011;17996;51.056;3.656;2023-05-16T05:59:17;24.65;;;3.45;;
27543;SDS011;17996;51.056;3.656;2023-05-16T06:01:43;20.30;;;3.95;;
27543;SDS011;17996;51.056;3.656;2023-05-16T06:04:09;27.65;;;3.60;;
27543;SDS011;17996;51.056;3.656;2023-05-16T06:06:35;29.08;;;3.80;;
27543;SDS011;17996;51.056;3.656;2023-05-16T06:09:02;20.23;;;3.80;;
27543;SDS011;17996;51.056;3.656;2023-05-16T06:11:27;15.70;;;3.08;;
27543;SDS011;17996;51.056;3.656;2023-05-16T06:13:53;21.20;;;3.85;;
27543;SDS011;17996;51.056;3.656;2023-05-16T06:16:22;22.15;;;3.53;;
27543;SDS011;17996;51.056;3.656;2023-05-16T06:18:49;22.27;;;3.13;;
27543;SDS011;17996;51.056;3.656;2023-05-16T06:21:15;26.00;;;4.68;;
27543;SDS011;17996;51.056;3.656;2023-05-16T06:23:40;23.42;;;2.90;;
27543;SDS011;17996;51.056;3.656;2023-05-16T06:26:06;16.15;;;3.05;;
27543;SDS011;17996;51.056;3.656;2023-05-16T06:28:32;22.33;;;3.80;;
27543;SDS011;17996;51.056;3.656;2023-05-16T06:30:58;23.10;;;3.05;;
27543;SDS011;17996;51.056;3.656;2023-05-16T06:33:23;24.30;;;3.15;;
27543;SDS011;17996;51.056;3.656;2023-05-16T06:35:49;14.90;;;2.65;;
27543;SDS011;17996;51.056;3.656;2023-05-16T06:38:17;20.25;;;2.83;;
27543;SDS011;17996;51.056;3.656;2023-05-16T06:40:43;15.93;;;3.08;;
27543;SDS011;17996;51.056;3.656;2023-05-16T06:43:09;23.90;;;3.35;;
27543;SDS011;17996;51.056;3.656;2023-05-16T06:45:36;26.38;;;3.35;;
27543;SDS011;17996;51.056;3.656;2023-05-16T06:48:03;17.38;;;2.42;;
27543;SDS011;17996;51.056;3.656;2023-05-16T06:50:31;25.85;;;2.58;;
27543;SDS011;17996;51.056;3.656;2023-05-16T06:52:57;19.50;;;3.28;;
27543;SDS011;17996;51.056;3.656;2023-05-16T06:55:23;27.92;;;2.75;;
27543;SDS011;17996;51.056;3.656;2023-05-16T06:57:48;18.27;;;3.15;;
27543;SDS011;17996;51.056;3.656;2023-05-16T07:00:14;20.13;;;2.75;;
27543;SDS011;17996;51.056;3.656;2023-05-16T07:02:40;19.75;;;3.05;;
27543;SDS011;17996;51.056;3.656;2023-05-16T07:05:06;11.82;;;2.58;;
27543;SDS011;17996;51.056;3.656;2023-05-16T07:07:32;14.00;;;2.50;;
27543;SDS011;17996;51.056;3.656;2023-05-16T07:09:58;13.88;;;2.55;;
27543;SDS011;17996;51.056;3.656;2023-05-16T07:12:24;14.95;;;2.78;;
27543;SDS011;17996;51.056;3.656;2023-05-16T07:14:50;15.07;;;2.38;;
27543;SDS011;17996;51.056;3.656;2023-05-16T07:17:16;24.10;;;2.92;;
27543;SDS011;17996;51.056;3.656;2023-05-16T07:19:42;17.65;;;3.20;;
27543;SDS011;17996;51.056;3.656;2023-05-16T07:22:07;16.17;;;2.67;;
27543;SDS011;17996;51.056;3.656;2023-05-16T07:24:33;18.77;;;2.63;;
27543;SDS011;17996;51.056;3.656;2023-05-16T07:27:00;12.10;;;1.88;;
27543;SDS011;17996;51.056;3.656;2023-05-16T07:29:26;15.13;;;1.92;;
27543;SDS011;17996;51.056;3.656;2023-05-16T07:31:51;12.48;;;2.50;;
27543;SDS011;17996;51.056;3.656;2023-05-16T07:34:17;16.15;;;2.28;;
27543;SDS011;17996;51.056;3.656;2023-05-16T07:36:43;13.45;;;2.90;;
27543;SDS011;17996;51.056;3.656;2023-05-16T07:39:08;10.70;;;2.13;;
27543;SDS011;17996;51.056;3.656;2023-05-16T07:41:34;16.73;;;2.63;;
27543;SDS011;17996;51.056;3.656;2023-05-16T07:44:00;13.43;;;2.10;;
27543;SDS011;17996;51.056;3.656;2023-05-16T07:46:26;7.80;;;1.50;;
27543;SDS011;17996;51.056;3.656;2023-05-16T07:48:51;17.05;;;2.08;;
27543;SDS011;17996;51.056;3.656;2023-05-16T07:51:17;8.13;;;1.45;;
27543;SDS011;17996;51.056;3.656;2023-05-16T07:53:42;11.02;;;2.45;;
27543;SDS011;17996;51.056;3.656;2023-05-16T07:56:08;11.52;;;2.20;;
27543;SDS011;17996;51.056;3.656;2023-05-16T07:58:35;11.30;;;2.05;;
27543;SDS011;17996;51.056;3.656;2023-05-16T08:01:00;7.07;;;1.65;;
27543;SDS011;17996;51.056;3.656;2023-05-16T08:03:26;13.32;;;1.73;;
27543;SDS011;17996;51.056;3.656;2023-05-16T08:05:52;16.50;;;2.25;;
27543;SDS011;17996;51.056;3.656;2023-05-16T08:08:18;10.63;;;1.85;;
27543;SDS011;17996;51.056;3.656;2023-05-16T08:10:43;14.40;;;2.72;;
27543;SDS011;17996;51.056;3.656;2023-05-16T08:13:09;8.50;;;2.15;;
27543;SDS011;17996;51.056;3.656;2023-05-16T08:15:36;6.28;;;1.75;;
27543;SDS011;17996;51.056;3.656;2023-05-16T08:18:01;18.25;;;2.53;;
27543;SDS011;17996;51.056;3.656;2023-05-16T08:20:27;11.77;;;2.72;;
27543;SDS011;17996;51.056;3.656;2023-05-16T08:22:53;11.30;;;2.58;;
27543;SDS011;17996;51.056;3.656;2023-05-16T08:25:19;11.55;;;1.77;;
27543;SDS011;17996;51.056;3.656;2023-05-16T08:27:45;13.95;;;2.58;;
27543;SDS011;17996;51.056;3.656;2023-05-16T08:30:13;16.52;;;2.28;;
27543;SDS011;17996;51.056;3.656;2023-05-16T08:32:38;18.83;;;2.90;;
27543;SDS011;17996;51.056;3.656;2023-05-16T08:35:04;13.30;;;1.92;;
27543;SDS011;17996;51.056;3.656;2023-05-16T08:37:31;16.65;;;2.92;;
27543;SDS011;17996;51.056;3.656;2023-05-16T08:39:57;10.80;;;1.92;;
27543;SDS011;17996;51.056;3.656;2023-05-16T08:42:23;14.82;;;2.17;;
27543;SDS011;17996;51.056;3.656;2023-05-16T08:44:49;17.75;;;3.03;;
27543;SDS011;17996;51.056;3.656;2023-05-16T08:47:18;14.80;;;2.60;;
27543;SDS011;17996;51.056;3.656;2023-05-16T08:49:50;8.77;;;1.75;;
27543;SDS011;17996;51.056;3.656;2023-05-16T08:52:17;15.07;;;2.15;;
27543;SDS011;17996;51.056;3.656;2023-05-16T08:54:45;10.02;;;2.00;;
27543;SDS011;17996;51.056;3.656;2023-05-16T08:57:11;8.18;;;1.85;;
27543;SDS011;17996;51.056;3.656;2023-05-16T08:59:39;8.82;;;1.77;;
27543;SDS011;17996;51.056;3.656;2023-05-16T09:02:05;15.05;;;1.92;;
27543;SDS011;17996;51.056;3.656;2023-05-16T09:04:31;7.78;;;2.15;;
27543;SDS011;17996;51.056;3.656;2023-05-16T09:06:57;11.88;;;2.88;;
27543;SDS011;17996;51.056;3.656;2023-05-16T09:09:23;11.65;;;1.80;;
27543;SDS011;17996;51.056;3.656;2023-05-16T09:11:49;10.93;;;2.05;;
27543;SDS011;17996;51.056;3.656;2023-05-16T09:14:15;12.70;;;2.22;;
27543;SDS011;17996;51.056;3.656;2023-05-16T09:16:40;12.15;;;2.05;;
27543;SDS011;17996;51.056;3.656;2023-05-16T09:19:06;5.95;;;1.67;;
27543;SDS011;17996;51.056;3.656;2023-05-16T09:21:36;7.35;;;1.67;;
27543;SDS011;17996;51.056;3.656;2023-05-16T09:24:05;16.52;;;1.67;;
27543;SDS011;17996;51.056;3.656;2023-05-16T09:26:36;11.75;;;2.63;;
27543;SDS011;17996;51.056;3.656;2023-05-16T09:29:20;11.82;;;1.55;;
27543;SDS011;17996;51.056;3.656;2023-05-16T09:31:48;14.63;;;2.63;;
27543;SDS011;17996;51.056;3.656;2023-05-16T09:34:13;9.07;;;2.05;;
27543;SDS011;17996;51.056;3.656;2023-05-16T09:36:39;12.27;;;2.88;;
27543;SDS011;17996;51.056;3.656;2023-05-16T09:39:05;7.55;;;1.88;;
27543;SDS011;17996;51.056;3.656;2023-05-16T09:41:34;7.35;;;1.30;;
27543;SDS011;17996;51.056;3.656;2023-05-16T09:44:04;10.38;;;2.08;;
27543;SDS011;17996;51.056;3.656;2023-05-16T09:46:32;7.40;;;1.77;;
27543;SDS011;17996;51.056;3.656;2023-05-16T09:49:02;13.82;;;2.40;;
27543;SDS011;17996;51.056;3.656;2023-05-16T09:51:27;10.80;;;1.77;;
27543;SDS011;17996;51.056;3.656;2023-05-16T09:53:53;12.93;;;2.00;;
27543;SDS011;17996;51.056;3.656;2023-05-16T09:56:19;8.13;;;1.73;;
27543;SDS011;17996;51.056;3.656;2023-05-16T09:58:45;13.23;;;2.25;;
27543;SDS011;17996;51.056;3.656;2023-05-16T10:01:11;14.48;;;1.95;;
27543;SDS011;17996;51.056;3.656;2023-05-16T10:03:38;9.00;;;1.80;;
27543;SDS011;17996;51.056;3.656;2023-05-16T10:06:05;10.40;;;2.05;;
27543;SDS011;17996;51.056;3.656;2023-05-16T10:08:33;11.52;;;2.00;;
27543;SDS011;17996;51.056;3.656;2023-05-16T10:11:01;12.93;;;1.75;;
27543;SDS011;17996;51.056;3.656;2023-05-16T10:13:28;15.43;;;2.22;;
27543;SDS011;17996;51.056;3.656;2023-05-16T10:15:56;10.18;;;1.88;;
27543;SDS011;17996;51.056;3.656;2023-05-16T10:18:30;6.50;;;1.60;;
27543;SDS011;17996;51.056;3.656;2023-05-16T10:20:57;6.30;;;1.77;;
27543;SDS011;17996;51.056;3.656;2023-05-16T10:23:28;10.57;;;1.85;;
27543;SDS011;17996;51.056;3.656;2023-05-16T10:25:56;12.97;;;2.23;;
27543;SDS011;17996;51.056;3.656;2023-05-16T10:28:23;12.60;;;2.35;;
27543;SDS011;17996;51.056;3.656;2023-05-16T10:30:49;13.88;;;2.22;;
27543;SDS011;17996;51.056;3.656;2023-05-16T10:33:16;9.80;;;1.98;;
27543;SDS011;17996;51.056;3.656;2023-05-16T10:35:44;11.77;;;1.73;;
27543;SDS011;17996;51.056;3.656;2023-05-16T10:38:11;8.70;;;2.03;;
27543;SDS011;17996;51.056;3.656;2023-05-16T10:43:06;9.10;;;2.00;;
27543;SDS011;17996;51.056;3.656;2023-05-16T10:45:33;9.43;;;1.70;;
27543;SDS011;17996;51.056;3.656;2023-05-16T10:48:03;11.00;;;2.17;;
27543;SDS011;17996;51.056;3.656;2023-05-16T10:50:35;12.40;;;2.33;;
27543;SDS011;17996;51.056;3.656;2023-05-16T11:06:26;6.95;;;1.60;;
27543;SDS011;17996;51.056;3.656;2023-05-16T11:09:35;14.23;;;3.05;;
27543;SDS011;17996;51.056;3.656;2023-05-16T11:11:52;13.07;;;2.92;;
27543;SDS011;17996;51.056;3.656;2023-05-16T11:17:08;13.35;;;2.55;;
27543;SDS011;17996;51.056;3.656;2023-05-16T11:19:48;7.50;;;1.70;;
27543;SDS011;17996;51.056;3.656;2023-05-16T11:22:28;8.20;;;1.90;;
27543;SDS011;17996;51.056;3.656;2023-05-16T11:25:05;9.23;;;2.00;;
27543;SDS011;17996;51.056;3.656;2023-05-16T11:27:36;10.15;;;2.13;;
27543;SDS011;17996;51.056;3.656;2023-05-16T11:32:38;9.43;;;2.28;;
27543;SDS011;17996;51.056;3.656;2023-05-16T11:35:07;7.32;;;1.92;;
27543;SDS011;17996;51.056;3.656;2023-05-16T11:37:34;10.05;;;1.63;;
27543;SDS011;17996;51.056;3.656;2023-05-16T11:40:01;4.05;;;1.20;;
27543;SDS011;17996;51.056;3.656;2023-05-16T11:42:35;15.35;;;2.20;;
27543;SDS011;17996;51.056;3.656;2023-05-16T11:45:05;10.70;;;1.52;;
27543;SDS011;17996;51.056;3.656;2023-05-16T11:47:36;6.97;;;1.27;;
27543;SDS011;17996;51.056;3.656;2023-05-16T11:50:16;7.97;;;1.65;;
27543;SDS011;17996;51.056;3.656;2023-05-16T11:52:45;11.98;;;2.17;;
27543;SDS011;17996;51.056;3.656;2023-05-16T11:55:12;8.98;;;1.85;;
27543;SDS011;17996;51.056;3.656;2023-05-16T11:57:39;7.50;;;1.45;;
27543;SDS011;17996;51.056;3.656;2023-05-16T12:00:16;16.65;;;2.03;;
27543;SDS011;17996;51.056;3.656;2023-05-16T12:02:44;6.93;;;1.50;;
27543;SDS011;17996;51.056;3.656;2023-05-16T12:05:14;12.82;;;2.35;;
27543;SDS011;17996;51.056;3.656;2023-05-16T12:07:43;7.07;;;1.77;;
27543;SDS011;17996;51.056;3.656;2023-05-16T12:10:11;8.52;;;1.80;;
27543;SDS011;17996;51.056;3.656;2023-05-16T12:12:41;12.13;;;2.42;;
27543;SDS011;17996;51.056;3.656;2023-05-16T12:15:08;8.15;;;1.70;;
27543;SDS011;17996;51.056;3.656;2023-05-16T12:17:36;12.63;;;1.73;;
27543;SDS011;17996;51.056;3.656;2023-05-16T12:20:03;12.68;;;2.22;;
27543;SDS011;17996;51.056;3.656;2023-05-16T12:22:31;12.23;;;2.75;;
27543;SDS011;17996;51.056;3.656;2023-05-16T12:28:00;10.15;;;1.85;;
27543;SDS011;17996;51.056;3.656;2023-05-16T12:30:27;9.02;;;1.65;;
27543;SDS011;17996;51.056;3.656;2023-05-16T12:35:33;9.32;;;1.65;;
27543;SDS011;17996;51.056;3.656;2023-05-16T12:37:59;10.15;;;1.85;;
27543;SDS011;17996;51.056;3.656;2023-05-16T12:40:29;5.65;;;1.60;;
27543;SDS011;17996;51.056;3.656;2023-05-16T12:42:55;16.33;;;2.38;;
27543;SDS011;17996;51.056;3.656;2023-05-16T12:45:21;9.73;;;1.65;;
27543;SDS011;17996;51.056;3.656;2023-05-16T12:47:48;8.10;;;1.95;;
27543;SDS011;17996;51.056;3.656;2023-05-16T12:50:14;10.85;;;1.90;;
27543;SDS011;17996;51.056;3.656;2023-05-16T12:52:51;7.63;;;2.05;;
27543;SDS011;17996;51.056;3.656;2023-05-16T12:55:19;8.40;;;1.95;;
27543;SDS011;17996;51.056;3.656;2023-05-16T12:57:46;8.13;;;1.70;;
27543;SDS011;17996;51.056;3.656;2023-05-16T13:00:13;6.78;;;1.58;;
27543;SDS011;17996;51.056;3.656;2023-05-16T13:02:40;10.23;;;1.90;;
27543;SDS011;17996;51.056;3.656;2023-05-16T13:05:06;10.05;;;1.65;;
27543;SDS011;17996;51.056;3.656;2023-05-16T13:07:33;9.60;;;2.58;;
27543;SDS011;17996;51.056;3.656;2023-05-16T13:09:59;7.15;;;1.50;;
27543;SDS011;17996;51.056;3.656;2023-05-16T13:12:25;7.93;;;1.60;;
27543;SDS011;17996;51.056;3.656;2023-05-16T13:14:54;6.20;;;1.92;;
27543;SDS011;17996;51.056;3.656;2023-05-16T13:19:46;8.20;;;1.73;;
27543;SDS011;17996;51.056;3.656;2023-05-16T13:22:11;6.82;;;1.70;;
27543;SDS011;17996;51.056;3.656;2023-05-16T13:24:37;6.13;;;1.90;;
27543;SDS011;17996;51.056;3.656;2023-05-16T13:27:03;7.55;;;1.75;;
27543;SDS011;17996;51.056;3.656;2023-05-16T13:29:29;11.40;;;2.42;;
27543;SDS011;17996;51.056;3.656;2023-05-16T13:31:55;10.18;;;1.73;;
27543;SDS011;17996;51.056;3.656;2023-05-16T13:34:20;6.82;;;1.75;;
27543;SDS011;17996;51.056;3.656;2023-05-16T13:36:46;7.88;;;1.83;;
27543;SDS011;17996;51.056;3.656;2023-05-16T13:39:13;11.75;;;1.80;;
27543;SDS011;17996;51.056;3.656;2023-05-16T13:41:39;8.48;;;1.83;;
27543;SDS011;17996;51.056;3.656;2023-05-16T13:44:06;10.00;;;1.67;;
27543;SDS011;17996;51.056;3.656;2023-05-16T13:46:32;8.32;;;1.48;;
27543;SDS011;17996;51.056;3.656;2023-05-16T13:48:59;6.50;;;1.65;;
27543;SDS011;17996;51.056;3.656;2023-05-16T13:51:25;7.18;;;1.83;;
27543;SDS011;17996;51.056;3.656;2023-05-16T13:53:50;5.05;;;1.30;;
27543;SDS011;17996;51.056;3.656;2023-05-16T13:56:16;7.13;;;1.77;;
27543;SDS011;17996;51.056;3.656;2023-05-16T13:58:42;4.97;;;1.58;;
27543;SDS011;17996;51.056;3.656;2023-05-16T14:01:08;6.53;;;1.88;;
27543;SDS011;17996;51.056;3.656;2023-05-16T14:03:34;6.13;;;1.92;;
27543;SDS011;17996;51.056;3.656;2023-05-16T14:06:02;5.07;;;1.45;;
27543;SDS011;17996;51.056;3.656;2023-05-16T14:08:28;6.50;;;1.13;;
27543;SDS011;17996;51.056;3.656;2023-05-16T14:10:54;4.00;;;1.60;;
27543;SDS011;17996;51.056;3.656;2023-05-16T14:13:19;5.53;;;1.10;;
27543;SDS011;17996;51.056;3.656;2023-05-16T14:15:45;6.13;;;1.17;;
27543;SDS011;17996;51.056;3.656;2023-05-16T14:18:11;7.43;;;1.27;;
27543;SDS011;17996;51.056;3.656;2023-05-16T14:20:38;5.75;;;1.40;;
27543;SDS011;17996;51.056;3.656;2023-05-16T14:23:03;8.85;;;1.75;;
27543;SDS011;17996;51.056;3.656;2023-05-16T14:25:29;10.52;;;1.65;;
27543;SDS011;17996;51.056;3.656;2023-05-16T14:27:56;2.83;;;1.10;;
27543;SDS011;17996;51.056;3.656;2023-05-16T14:30:21;6.63;;;1.60;;
27543;SDS011;17996;51.056;3.656;2023-05-16T14:32:47;5.53;;;1.30;;
27543;SDS011;17996;51.056;3.656;2023-05-16T14:35:13;3.83;;;1.08;;
27543;SDS011;17996;51.056;3.656;2023-05-16T14:37:39;2.90;;;0.95;;
27543;SDS011;17996;51.056;3.656;2023-05-16T14:40:05;7.05;;;1.40;;
27543;SDS011;17996;51.056;3.656;2023-05-16T14:42:32;5.40;;;1.50;;
27543;SDS011;17996;51.056;3.656;2023-05-16T14:44:58;4.32;;;1.23;;
27543;SDS011;17996;51.056;3.656;2023-05-16T14:47:24;6.55;;;1.05;;
27543;SDS011;17996;51.056;3.656;2023-05-16T14:49:50;4.65;;;1.05;;
27543;SDS011;17996;51.056;3.656;2023-05-16T14:52:18;5.43;;;1.20;;
27543;SDS011;17996;51.056;3.656;2023-05-16T14:54:44;5.15;;;1.00;;
27543;SDS011;17996;51.056;3.656;2023-05-16T14:57:10;4.85;;;1.10;;
27543;SDS011;17996;51.056;3.656;2023-05-16T14:59:36;3.35;;;0.98;;
27543;SDS011;17996;51.056;3.656;2023-05-16T15:02:01;3.90;;;1.08;;
27543;SDS011;17996;51.056;3.656;2023-05-16T15:04:28;2.55;;;1.08;;
27543;SDS011;17996;51.056;3.656;2023-05-16T15:06:54;2.92;;;1.17;;
27543;SDS011;17996;51.056;3.656;2023-05-16T15:09:20;5.45;;;1.52;;
27543;SDS011;17996;51.056;3.656;2023-05-16T15:11:46;4.43;;;1.17;;
27543;SDS011;17996;51.056;3.656;2023-05-16T15:14:12;3.30;;;1.00;;
27543;SDS011;17996;51.056;3.656;2023-05-16T15:16:37;5.22;;;1.30;;
27543;SDS011;17996;51.056;3.656;2023-05-16T15:19:03;6.70;;;1.70;;
27543;SDS011;17996;51.056;3.656;2023-05-16T15:21:29;4.45;;;1.42;;